sensor_id;sensor_type;location;lat;lon;timestamp;P1;durP1;ratioP1;P2;durP2;ratioP2
11447;SDS011;43755;49.736;8.734;2023-09-30T00:00:37;4.32;;;2.65;;
11447;SDS011;43755;49.736;8.734;2023-09-30T00:02:38;6.22;;;2.75;;
11447;SDS011;43755;49.736;8.734;2023-09-30T00:04:39;4.50;;;2.63;;
11447;SDS011;43755;49.736;8.734;2023-09-30T00:06:40;4.25;;;2.70;;
11447;SDS011;43755;49.736;8.734;2023-09-30T00:08:41;4.67;;;2.83;;
11447;SDS011;43755;49.736;8.734;2023-09-30T00:10:43;6.40;;;2.95;;
11447;SDS011;43755;49.736;8.734;2023-09-30T00:12:47;4.60;;;2.83;;
11447;SDS011;43755;49.736;8.734;2023-09-30T00:14:47;5.95;;;2.67;;
11447;SDS011;43755;49.736;8.734;2023-09-30T00:16:49;5.10;;;2.72;;
11447;SDS011;43755;49.736;8.734;2023-09-30T00:18:50;4.22;;;2.55;;
11447;SDS011;43755;49.736;8.734;2023-09-30T00:20:53;5.68;;;2.67;;
11447;SDS011;43755;49.736;8.734;2023-09-30T00:22:54;4.10;;;2.72;;
11447;SDS011;43755;49.736;8.734;2023-09-30T00:24:56;5.63;;;2.97;;
11447;SDS011;43755;49.736;8.734;2023-09-30T00:26:57;5.63;;;2.97;;
11447;SDS011;43755;49.736;8.734;2023-09-30T00:28:59;6.47;;;2.80;;
11447;SDS011;43755;49.736;8.734;2023-09-30T00:31:06;5.38;;;2.70;;
11447;SDS011;43755;49.736;8.734;2023-09-30T00:33:09;5.40;;;2.75;;
11447;SDS011;43755;49.736;8.734;2023-09-30T00:35:10;6.20;;;3.03;;
11447;SDS011;43755;49.736;8.734;2023-09-30T00:37:12;3.83;;;2.60;;
11447;SDS011;43755;49.736;8.734;2023-09-30T00:39:13;4.28;;;2.70;;
11447;SDS011;43755;49.736;8.734;2023-09-30T00:41:14;3.75;;;2.58;;
11447;SDS011;43755;49.736;8.734;2023-09-30T00:43:19;5.00;;;2.50;;
11447;SDS011;43755;49.736;8.734;2023-09-30T00:45:21;3.28;;;2.20;;
11447;SDS011;43755;49.736;8.734;2023-09-30T00:47:23;4.70;;;2.75;;
11447;SDS011;43755;49.736;8.734;2023-09-30T00:49:25;4.93;;;2.50;;
11447;SDS011;43755;49.736;8.734;2023-09-30T00:51:27;4.70;;;2.55;;
11447;SDS011;43755;49.736;8.734;2023-09-30T00:53:29;4.55;;;2.90;;
11447;SDS011;43755;49.736;8.734;2023-09-30T00:55:30;4.60;;;2.90;;
11447;SDS011;43755;49.736;8.734;2023-09-30T00:57:31;6.07;;;2.70;;
11447;SDS011;43755;49.736;8.734;2023-09-30T00:59:35;3.28;;;2.60;;
11447;SDS011;43755;49.736;8.734;2023-09-30T01:01:37;5.45;;;3.08;;
11447;SDS011;43755;49.736;8.734;2023-09-30T01:03:39;7.05;;;3.28;;
11447;SDS011;43755;49.736;8.734;2023-09-30T01:05:40;3.03;;;2.50;;
11447;SDS011;43755;49.736;8.734;2023-09-30T01:07:43;5.07;;;2.55;;
11447;SDS011;43755;49.736;8.734;2023-09-30T01:09:44;5.45;;;3.05;;
11447;SDS011;43755;49.736;8.734;2023-09-30T01:11:46;3.42;;;2.60;;
11447;SDS011;43755;49.736;8.734;2023-09-30T01:13:47;6.03;;;3.65;;
11447;SDS011;43755;49.736;8.734;2023-09-30T01:15:49;4.75;;;3.53;;
11447;SDS011;43755;49.736;8.734;2023-09-30T01:17:52;4.60;;;3.25;;
11447;SDS011;43755;49.736;8.734;2023-09-30T01:19:54;6.18;;;3.47;;
11447;SDS011;43755;49.736;8.734;2023-09-30T01:21:56;5.47;;;3.38;;
11447;SDS011;43755;49.736;8.734;2023-09-30T01:23:59;5.70;;;3.40;;
11447;SDS011;43755;49.736;8.734;2023-09-30T01:26:01;8.07;;;3.70;;
11447;SDS011;43755;49.736;8.734;2023-09-30T01:28:06;5.40;;;3.40;;
11447;SDS011;43755;49.736;8.734;2023-09-30T01:30:09;5.82;;;3.58;;
11447;SDS011;43755;49.736;8.734;2023-09-30T01:32:11;4.43;;;3.38;;
11447;SDS011;43755;49.736;8.734;2023-09-30T01:34:14;8.23;;;3.55;;
11447;SDS011;43755;49.736;8.734;2023-09-30T01:36:15;6.72;;;3.40;;
11447;SDS011;43755;49.736;8.734;2023-09-30T01:38:19;5.60;;;3.58;;
11447;SDS011;43755;49.736;8.734;2023-09-30T01:40:19;5.85;;;3.70;;
11447;SDS011;43755;49.736;8.734;2023-09-30T01:42:21;5.30;;;3.17;;
11447;SDS011;43755;49.736;8.734;2023-09-30T01:44:22;8.50;;;3.70;;
11447;SDS011;43755;49.736;8.734;2023-09-30T01:46:24;5.28;;;3.80;;
11447;SDS011;43755;49.736;8.734;2023-09-30T01:48:25;6.13;;;4.30;;
11447;SDS011;43755;49.736;8.734;2023-09-30T01:50:27;7.43;;;4.55;;
11447;SDS011;43755;49.736;8.734;2023-09-30T01:52:28;7.75;;;4.50;;
11447;SDS011;43755;49.736;8.734;2023-09-30T01:54:31;6.38;;;4.32;;
11447;SDS011;43755;49.736;8.734;2023-09-30T01:56:33;4.15;;;3.38;;
11447;SDS011;43755;49.736;8.734;2023-09-30T01:58:33;3.73;;;3.43;;
11447;SDS011;43755;49.736;8.734;2023-09-30T02:00:34;8.40;;;3.92;;
11447;SDS011;43755;49.736;8.734;2023-09-30T02:02:36;5.47;;;3.75;;
11447;SDS011;43755;49.736;8.734;2023-09-30T02:04:37;8.35;;;4.70;;
11447;SDS011;43755;49.736;8.734;2023-09-30T02:06:39;6.88;;;4.47;;
11447;SDS011;43755;49.736;8.734;2023-09-30T02:08:40;6.75;;;4.38;;
11447;SDS011;43755;49.736;8.734;2023-09-30T02:10:43;4.82;;;3.95;;
11447;SDS011;43755;49.736;8.734;2023-09-30T02:12:43;6.63;;;4.30;;
11447;SDS011;43755;49.736;8.734;2023-09-30T02:14:45;5.60;;;4.03;;
11447;SDS011;43755;49.736;8.734;2023-09-30T02:16:47;7.35;;;4.30;;
11447;SDS011;43755;49.736;8.734;2023-09-30T02:18:48;7.00;;;3.97;;
11447;SDS011;43755;49.736;8.734;2023-09-30T02:20:50;6.20;;;3.85;;
11447;SDS011;43755;49.736;8.734;2023-09-30T02:22:53;5.47;;;3.40;;
11447;SDS011;43755;49.736;8.734;2023-09-30T02:24:55;7.50;;;4.28;;
11447;SDS011;43755;49.736;8.734;2023-09-30T02:26:57;4.93;;;3.80;;
11447;SDS011;43755;49.736;8.734;2023-09-30T02:28:58;6.80;;;4.20;;
11447;SDS011;43755;49.736;8.734;2023-09-30T02:31:00;4.45;;;3.80;;
11447;SDS011;43755;49.736;8.734;2023-09-30T02:33:01;8.07;;;3.80;;
11447;SDS011;43755;49.736;8.734;2023-09-30T02:35:03;7.18;;;4.18;;
11447;SDS011;43755;49.736;8.734;2023-09-30T02:37:05;5.10;;;3.78;;
11447;SDS011;43755;49.736;8.734;2023-09-30T02:39:07;5.53;;;4.18;;
11447;SDS011;43755;49.736;8.734;2023-09-30T02:41:09;6.18;;;3.90;;
11447;SDS011;43755;49.736;8.734;2023-09-30T02:43:12;6.15;;;3.72;;
11447;SDS011;43755;49.736;8.734;2023-09-30T02:45:15;8.50;;;4.00;;
11447;SDS011;43755;49.736;8.734;2023-09-30T02:47:17;7.55;;;3.85;;
11447;SDS011;43755;49.736;8.734;2023-09-30T02:49:17;7.03;;;3.80;;
11447;SDS011;43755;49.736;8.734;2023-09-30T02:51:19;6.45;;;3.80;;
11447;SDS011;43755;49.736;8.734;2023-09-30T02:53:20;7.07;;;4.18;;
11447;SDS011;43755;49.736;8.734;2023-09-30T02:55:22;8.65;;;3.92;;
11447;SDS011;43755;49.736;8.734;2023-09-30T02:57:23;8.50;;;4.03;;
11447;SDS011;43755;49.736;8.734;2023-09-30T02:59:26;5.60;;;3.97;;
11447;SDS011;43755;49.736;8.734;2023-09-30T03:01:27;7.43;;;3.90;;
11447;SDS011;43755;49.736;8.734;2023-09-30T03:03:28;6.15;;;3.85;;
11447;SDS011;43755;49.736;8.734;2023-09-30T03:05:31;8.30;;;4.00;;
11447;SDS011;43755;49.736;8.734;2023-09-30T03:07:33;6.45;;;3.72;;
11447;SDS011;43755;49.736;8.734;2023-09-30T03:09:34;6.10;;;3.90;;
11447;SDS011;43755;49.736;8.734;2023-09-30T03:11:36;7.10;;;3.92;;
11447;SDS011;43755;49.736;8.734;2023-09-30T03:13:38;9.68;;;4.18;;
11447;SDS011;43755;49.736;8.734;2023-09-30T03:15:43;7.07;;;4.10;;
11447;SDS011;43755;49.736;8.734;2023-09-30T03:17:45;6.80;;;4.18;;
11447;SDS011;43755;49.736;8.734;2023-09-30T03:19:46;9.07;;;3.70;;
11447;SDS011;43755;49.736;8.734;2023-09-30T03:21:48;8.00;;;4.13;;
11447;SDS011;43755;49.736;8.734;2023-09-30T03:23:48;6.87;;;3.67;;
11447;SDS011;43755;49.736;8.734;2023-09-30T03:25:50;8.75;;;3.90;;
11447;SDS011;43755;49.736;8.734;2023-09-30T03:27:50;6.33;;;3.93;;
11447;SDS011;43755;49.736;8.734;2023-09-30T03:29:52;7.30;;;3.90;;
11447;SDS011;43755;49.736;8.734;2023-09-30T03:31:54;7.03;;;3.72;;
11447;SDS011;43755;49.736;8.734;2023-09-30T03:33:56;12.60;;;3.90;;
11447;SDS011;43755;49.736;8.734;2023-09-30T03:35:58;8.45;;;4.13;;
11447;SDS011;43755;49.736;8.734;2023-09-30T03:37:58;9.70;;;4.10;;
11447;SDS011;43755;49.736;8.734;2023-09-30T03:40:02;6.00;;;3.58;;
11447;SDS011;43755;49.736;8.734;2023-09-30T03:42:13;10.48;;;3.97;;
11447;SDS011;43755;49.736;8.734;2023-09-30T03:44:15;6.30;;;3.97;;
11447;SDS011;43755;49.736;8.734;2023-09-30T03:46:16;5.32;;;3.33;;
11447;SDS011;43755;49.736;8.734;2023-09-30T03:48:19;9.07;;;4.00;;
11447;SDS011;43755;49.736;8.734;2023-09-30T03:50:20;8.38;;;3.72;;
11447;SDS011;43755;49.736;8.734;2023-09-30T03:52:23;7.55;;;4.10;;
11447;SDS011;43755;49.736;8.734;2023-09-30T03:54:26;7.20;;;3.58;;
11447;SDS011;43755;49.736;8.734;2023-09-30T03:56:27;8.63;;;3.67;;
11447;SDS011;43755;49.736;8.734;2023-09-30T03:58:29;7.40;;;3.60;;
11447;SDS011;43755;49.736;8.734;2023-09-30T04:00:29;7.73;;;3.23;;
11447;SDS011;43755;49.736;8.734;2023-09-30T04:02:30;7.13;;;3.47;;
11447;SDS011;43755;49.736;8.734;2023-09-30T04:04:33;6.97;;;3.85;;
11447;SDS011;43755;49.736;8.734;2023-09-30T04:06:36;8.02;;;3.30;;
11447;SDS011;43755;49.736;8.734;2023-09-30T04:08:38;7.40;;;3.63;;
11447;SDS011;43755;49.736;8.734;2023-09-30T04:10:40;7.18;;;3.35;;
11447;SDS011;43755;49.736;8.734;2023-09-30T04:12:41;6.32;;;3.80;;
11447;SDS011;43755;49.736;8.734;2023-09-30T04:14:43;8.77;;;3.50;;
11447;SDS011;43755;49.736;8.734;2023-09-30T04:16:44;6.32;;;3.42;;
11447;SDS011;43755;49.736;8.734;2023-09-30T04:18:46;7.68;;;3.55;;
11447;SDS011;43755;49.736;8.734;2023-09-30T04:20:51;8.20;;;3.90;;
11447;SDS011;43755;49.736;8.734;2023-09-30T04:22:53;7.00;;;3.53;;
11447;SDS011;43755;49.736;8.734;2023-09-30T04:24:57;10.40;;;3.92;;
11447;SDS011;43755;49.736;8.734;2023-09-30T04:26:58;9.05;;;3.72;;
11447;SDS011;43755;49.736;8.734;2023-09-30T04:29:03;7.80;;;3.60;;
11447;SDS011;43755;49.736;8.734;2023-09-30T04:31:10;8.05;;;3.40;;
11447;SDS011;43755;49.736;8.734;2023-09-30T04:33:12;7.78;;;3.60;;
11447;SDS011;43755;49.736;8.734;2023-09-30T04:35:14;4.97;;;3.10;;
11447;SDS011;43755;49.736;8.734;2023-09-30T04:37:17;6.75;;;3.30;;
11447;SDS011;43755;49.736;8.734;2023-09-30T04:39:19;7.25;;;3.33;;
11447;SDS011;43755;49.736;8.734;2023-09-30T04:41:20;9.43;;;3.40;;
11447;SDS011;43755;49.736;8.734;2023-09-30T04:43:21;6.57;;;3.38;;
11447;SDS011;43755;49.736;8.734;2023-09-30T04:45:23;6.15;;;2.97;;
11447;SDS011;43755;49.736;8.734;2023-09-30T04:47:24;7.68;;;2.83;;
11447;SDS011;43755;49.736;8.734;2023-09-30T04:49:26;10.55;;;3.42;;
11447;SDS011;43755;49.736;8.734;2023-09-30T04:51:27;7.60;;;3.33;;
11447;SDS011;43755;49.736;8.734;2023-09-30T04:53:32;5.97;;;3.10;;
11447;SDS011;43755;49.736;8.734;2023-09-30T04:55:34;7.53;;;3.53;;
11447;SDS011;43755;49.736;8.734;2023-09-30T04:57:37;7.20;;;3.50;;
11447;SDS011;43755;49.736;8.734;2023-09-30T04:59:39;8.00;;;3.80;;
11447;SDS011;43755;49.736;8.734;2023-09-30T05:01:42;6.60;;;3.78;;
11447;SDS011;43755;49.736;8.734;2023-09-30T05:03:44;8.00;;;4.10;;
11447;SDS011;43755;49.736;8.734;2023-09-30T05:05:48;7.55;;;3.72;;
11447;SDS011;43755;49.736;8.734;2023-09-30T05:07:50;5.35;;;3.28;;
11447;SDS011;43755;49.736;8.734;2023-09-30T05:09:51;6.60;;;3.77;;
11447;SDS011;43755;49.736;8.734;2023-09-30T05:11:54;5.70;;;3.38;;
11447;SDS011;43755;49.736;8.734;2023-09-30T05:13:55;6.85;;;3.50;;
11447;SDS011;43755;49.736;8.734;2023-09-30T05:15:56;7.15;;;3.80;;
11447;SDS011;43755;49.736;8.734;2023-09-30T05:17:59;6.85;;;3.60;;
11447;SDS011;43755;49.736;8.734;2023-09-30T05:20:00;7.45;;;3.60;;
11447;SDS011;43755;49.736;8.734;2023-09-30T05:22:05;6.47;;;3.97;;
11447;SDS011;43755;49.736;8.734;2023-09-30T05:24:07;7.18;;;3.47;;
11447;SDS011;43755;49.736;8.734;2023-09-30T05:26:10;6.60;;;3.60;;
11447;SDS011;43755;49.736;8.734;2023-09-30T05:28:11;6.25;;;3.28;;
11447;SDS011;43755;49.736;8.734;2023-09-30T05:30:13;9.02;;;3.80;;
11447;SDS011;43755;49.736;8.734;2023-09-30T05:32:16;6.55;;;3.60;;
11447;SDS011;43755;49.736;8.734;2023-09-30T05:34:18;6.57;;;3.55;;
11447;SDS011;43755;49.736;8.734;2023-09-30T05:36:19;8.27;;;3.30;;
11447;SDS011;43755;49.736;8.734;2023-09-30T05:38:21;7.15;;;3.85;;
11447;SDS011;43755;49.736;8.734;2023-09-30T05:40:23;7.18;;;3.75;;
11447;SDS011;43755;49.736;8.734;2023-09-30T05:42:27;8.88;;;4.25;;
11447;SDS011;43755;49.736;8.734;2023-09-30T05:44:27;6.75;;;3.85;;
11447;SDS011;43755;49.736;8.734;2023-09-30T05:46:30;7.38;;;4.60;;
11447;SDS011;43755;49.736;8.734;2023-09-30T05:48:31;8.20;;;3.80;;
11447;SDS011;43755;49.736;8.734;2023-09-30T05:50:33;8.18;;;3.92;;
11447;SDS011;43755;49.736;8.734;2023-09-30T05:52:36;7.10;;;4.05;;
11447;SDS011;43755;49.736;8.734;2023-09-30T05:54:37;5.37;;;3.33;;
11447;SDS011;43755;49.736;8.734;2023-09-30T05:56:38;9.57;;;3.90;;
11447;SDS011;43755;49.736;8.734;2023-09-30T05:58:43;5.95;;;3.58;;
11447;SDS011;43755;49.736;8.734;2023-09-30T06:00:45;7.63;;;3.60;;
11447;SDS011;43755;49.736;8.734;2023-09-30T06:02:46;6.07;;;3.83;;
11447;SDS011;43755;49.736;8.734;2023-09-30T06:04:47;8.30;;;4.00;;
11447;SDS011;43755;49.736;8.734;2023-09-30T06:06:51;6.45;;;3.45;;
11447;SDS011;43755;49.736;8.734;2023-09-30T06:08:53;7.38;;;3.90;;
11447;SDS011;43755;49.736;8.734;2023-09-30T06:10:54;7.88;;;4.22;;
11447;SDS011;43755;49.736;8.734;2023-09-30T06:12:58;9.00;;;4.35;;
11447;SDS011;43755;49.736;8.734;2023-09-30T06:15:02;9.75;;;4.45;;
11447;SDS011;43755;49.736;8.734;2023-09-30T06:17:03;6.25;;;3.85;;
11447;SDS011;43755;49.736;8.734;2023-09-30T06:19:05;5.78;;;4.07;;
11447;SDS011;43755;49.736;8.734;2023-09-30T06:21:07;10.02;;;4.40;;
11447;SDS011;43755;49.736;8.734;2023-09-30T06:23:10;8.98;;;4.07;;
11447;SDS011;43755;49.736;8.734;2023-09-30T06:25:11;8.20;;;3.70;;
11447;SDS011;43755;49.736;8.734;2023-09-30T06:27:12;6.78;;;3.97;;
11447;SDS011;43755;49.736;8.734;2023-09-30T06:29:14;7.70;;;3.63;;
11447;SDS011;43755;49.736;8.734;2023-09-30T06:31:16;8.00;;;3.90;;
11447;SDS011;43755;49.736;8.734;2023-09-30T06:33:17;7.38;;;3.83;;
11447;SDS011;43755;49.736;8.734;2023-09-30T06:35:20;7.13;;;3.63;;
11447;SDS011;43755;49.736;8.734;2023-09-30T06:37:20;5.67;;;3.80;;
11447;SDS011;43755;49.736;8.734;2023-09-30T06:39:21;5.85;;;3.40;;
11447;SDS011;43755;49.736;8.734;2023-09-30T06:41:23;7.00;;;3.60;;
11447;SDS011;43755;49.736;8.734;2023-09-30T06:43:25;6.97;;;3.95;;
11447;SDS011;43755;49.736;8.734;2023-09-30T06:45:27;4.95;;;3.58;;
11447;SDS011;43755;49.736;8.734;2023-09-30T06:47:34;7.07;;;3.80;;
11447;SDS011;43755;49.736;8.734;2023-09-30T06:49:36;8.35;;;4.22;;
11447;SDS011;43755;49.736;8.734;2023-09-30T06:51:38;6.85;;;3.60;;
11447;SDS011;43755;49.736;8.734;2023-09-30T06:53:39;9.18;;;4.00;;
11447;SDS011;43755;49.736;8.734;2023-09-30T06:55:39;8.30;;;3.80;;
11447;SDS011;43755;49.736;8.734;2023-09-30T06:57:41;7.65;;;3.65;;
11447;SDS011;43755;49.736;8.734;2023-09-30T06:59:42;7.57;;;3.90;;
11447;SDS011;43755;49.736;8.734;2023-09-30T07:01:43;7.00;;;3.85;;
11447;SDS011;43755;49.736;8.734;2023-09-30T07:03:46;8.18;;;4.10;;
11447;SDS011;43755;49.736;8.734;2023-09-30T07:05:47;7.80;;;3.80;;
11447;SDS011;43755;49.736;8.734;2023-09-30T07:07:50;7.07;;;3.83;;
11447;SDS011;43755;49.736;8.734;2023-09-30T07:09:51;9.48;;;4.03;;
11447;SDS011;43755;49.736;8.734;2023-09-30T07:11:53;13.45;;;4.30;;
11447;SDS011;43755;49.736;8.734;2023-09-30T07:13:54;7.97;;;4.40;;
11447;SDS011;43755;49.736;8.734;2023-09-30T07:15:55;8.10;;;3.88;;
11447;SDS011;43755;49.736;8.734;2023-09-30T07:17:57;10.88;;;4.72;;
11447;SDS011;43755;49.736;8.734;2023-09-30T07:19:59;11.07;;;5.22;;
11447;SDS011;43755;49.736;8.734;2023-09-30T07:22:01;7.72;;;3.92;;
11447;SDS011;43755;49.736;8.734;2023-09-30T07:24:03;9.07;;;4.10;;
11447;SDS011;43755;49.736;8.734;2023-09-30T07:26:05;6.43;;;3.60;;
11447;SDS011;43755;49.736;8.734;2023-09-30T07:28:06;7.75;;;3.92;;
11447;SDS011;43755;49.736;8.734;2023-09-30T07:30:11;7.32;;;4.10;;
11447;SDS011;43755;49.736;8.734;2023-09-30T07:32:14;8.85;;;4.50;;
11447;SDS011;43755;49.736;8.734;2023-09-30T07:34:16;8.52;;;4.30;;
11447;SDS011;43755;49.736;8.734;2023-09-30T07:36:19;7.45;;;4.10;;
11447;SDS011;43755;49.736;8.734;2023-09-30T07:38:20;10.68;;;4.35;;
11447;SDS011;43755;49.736;8.734;2023-09-30T07:40:22;7.50;;;4.30;;
11447;SDS011;43755;49.736;8.734;2023-09-30T07:42:22;8.03;;;4.83;;
11447;SDS011;43755;49.736;8.734;2023-09-30T07:44:24;10.00;;;5.13;;
11447;SDS011;43755;49.736;8.734;2023-09-30T07:46:25;8.35;;;4.88;;
11447;SDS011;43755;49.736;8.734;2023-09-30T07:48:25;9.80;;;5.30;;
11447;SDS011;43755;49.736;8.734;2023-09-30T07:50:27;12.15;;;5.30;;
11447;SDS011;43755;49.736;8.734;2023-09-30T07:52:30;10.20;;;5.47;;
11447;SDS011;43755;49.736;8.734;2023-09-30T07:54:31;11.40;;;5.75;;
11447;SDS011;43755;49.736;8.734;2023-09-30T07:56:32;10.95;;;5.13;;
11447;SDS011;43755;49.736;8.734;2023-09-30T07:58:34;9.82;;;5.38;;
11447;SDS011;43755;49.736;8.734;2023-09-30T08:02:16;6.90;;;5.57;;
11447;SDS011;43755;49.736;8.734;2023-09-30T08:14:35;10.27;;;6.82;;
11447;SDS011;43755;49.736;8.734;2023-09-30T08:16:36;9.05;;;6.63;;
11447;SDS011;43755;49.736;8.734;2023-09-30T08:18:37;11.03;;;6.33;;
11447;SDS011;43755;49.736;8.734;2023-09-30T08:20:38;10.27;;;6.80;;
11447;SDS011;43755;49.736;8.734;2023-09-30T08:22:39;10.70;;;6.57;;
11447;SDS011;43755;49.736;8.734;2023-09-30T08:24:41;9.05;;;6.40;;
11447;SDS011;43755;49.736;8.734;2023-09-30T08:26:42;11.35;;;6.55;;
11447;SDS011;43755;49.736;8.734;2023-09-30T08:28:43;11.45;;;6.88;;
11447;SDS011;43755;49.736;8.734;2023-09-30T08:30:46;10.85;;;6.43;;
11447;SDS011;43755;49.736;8.734;2023-09-30T08:32:47;12.10;;;6.65;;
11447;SDS011;43755;49.736;8.734;2023-09-30T08:34:48;8.33;;;5.90;;
11447;SDS011;43755;49.736;8.734;2023-09-30T08:36:49;9.00;;;6.28;;
11447;SDS011;43755;49.736;8.734;2023-09-30T08:38:50;11.83;;;5.87;;
11447;SDS011;43755;49.736;8.734;2023-09-30T08:40:51;8.23;;;5.90;;
11447;SDS011;43755;49.736;8.734;2023-09-30T08:42:53;11.43;;;6.20;;
11447;SDS011;43755;49.736;8.734;2023-09-30T08:44:55;6.78;;;5.53;;
11447;SDS011;43755;49.736;8.734;2023-09-30T08:46:58;9.32;;;5.07;;
11447;SDS011;43755;49.736;8.734;2023-09-30T08:49:00;6.28;;;5.32;;
11447;SDS011;43755;49.736;8.734;2023-09-30T08:51:03;7.15;;;4.65;;
11447;SDS011;43755;49.736;8.734;2023-09-30T08:53:04;7.85;;;4.68;;
11447;SDS011;43755;49.736;8.734;2023-09-30T08:55:07;7.63;;;4.78;;
11447;SDS011;43755;49.736;8.734;2023-09-30T08:57:09;6.68;;;4.57;;
11447;SDS011;43755;49.736;8.734;2023-09-30T08:59:11;9.50;;;4.75;;
11447;SDS011;43755;49.736;8.734;2023-09-30T09:01:12;7.38;;;4.60;;
11447;SDS011;43755;49.736;8.734;2023-09-30T09:03:17;7.63;;;4.43;;
11447;SDS011;43755;49.736;8.734;2023-09-30T09:05:19;7.97;;;4.60;;
11447;SDS011;43755;49.736;8.734;2023-09-30T09:07:21;7.13;;;4.40;;
11447;SDS011;43755;49.736;8.734;2023-09-30T09:09:21;9.73;;;4.70;;
11447;SDS011;43755;49.736;8.734;2023-09-30T09:11:23;7.82;;;4.45;;
11447;SDS011;43755;49.736;8.734;2023-09-30T09:13:25;7.00;;;4.40;;
11447;SDS011;43755;49.736;8.734;2023-09-30T09:15:27;6.35;;;4.43;;
11447;SDS011;43755;49.736;8.734;2023-09-30T09:17:41;7.25;;;4.63;;
11447;SDS011;43755;49.736;8.734;2023-09-30T09:19:45;6.38;;;4.32;;
11447;SDS011;43755;49.736;8.734;2023-09-30T09:22:00;5.80;;;4.25;;
11447;SDS011;43755;49.736;8.734;2023-09-30T09:24:04;10.07;;;4.53;;
11447;SDS011;43755;49.736;8.734;2023-09-30T09:26:06;7.75;;;4.57;;
11447;SDS011;43755;49.736;8.734;2023-09-30T09:28:07;8.40;;;4.18;;
11447;SDS011;43755;49.736;8.734;2023-09-30T09:30:19;8.35;;;4.40;;
11447;SDS011;43755;49.736;8.734;2023-09-30T09:32:22;9.13;;;4.40;;
11447;SDS011;43755;49.736;8.734;2023-09-30T09:34:23;8.05;;;4.50;;
11447;SDS011;43755;49.736;8.734;2023-09-30T09:36:37;9.47;;;3.83;;
11447;SDS011;43755;49.736;8.734;2023-09-30T09:38:43;8.13;;;4.40;;
11447;SDS011;43755;49.736;8.734;2023-09-30T09:40:45;10.93;;;5.05;;
11447;SDS011;43755;49.736;8.734;2023-09-30T09:42:46;10.80;;;4.68;;
11447;SDS011;43755;49.736;8.734;2023-09-30T09:44:50;6.82;;;4.28;;
11447;SDS011;43755;49.736;8.734;2023-09-30T09:46:55;10.13;;;4.13;;
11447;SDS011;43755;49.736;8.734;2023-09-30T09:48:59;14.23;;;4.30;;
11447;SDS011;43755;49.736;8.734;2023-09-30T09:51:00;10.45;;;5.15;;
11447;SDS011;43755;49.736;8.734;2023-09-30T09:53:04;6.90;;;4.30;;
11447;SDS011;43755;49.736;8.734;2023-09-30T09:55:06;8.77;;;4.05;;
11447;SDS011;43755;49.736;8.734;2023-09-30T09:57:08;8.15;;;4.60;;
11447;SDS011;43755;49.736;8.734;2023-09-30T09:59:11;6.35;;;4.28;;
11447;SDS011;43755;49.736;8.734;2023-09-30T10:01:13;9.38;;;4.20;;
11447;SDS011;43755;49.736;8.734;2023-09-30T10:03:14;6.43;;;4.22;;
11447;SDS011;43755;49.736;8.734;2023-09-30T10:05:16;7.30;;;4.60;;
11447;SDS011;43755;49.736;8.734;2023-09-30T10:07:19;7.03;;;4.50;;
11447;SDS011;43755;49.736;8.734;2023-09-30T10:09:24;8.15;;;4.50;;
11447;SDS011;43755;49.736;8.734;2023-09-30T10:11:26;5.93;;;3.88;;
11447;SDS011;43755;49.736;8.734;2023-09-30T10:15:50;8.80;;;4.65;;
11447;SDS011;43755;49.736;8.734;2023-09-30T10:17:57;8.23;;;4.80;;
11447;SDS011;43755;49.736;8.734;2023-09-30T10:20:03;8.20;;;4.82;;
11447;SDS011;43755;49.736;8.734;2023-09-30T10:22:21;7.75;;;4.40;;
11447;SDS011;43755;49.736;8.734;2023-09-30T10:24:30;7.05;;;4.38;;
11447;SDS011;43755;49.736;8.734;2023-09-30T10:26:31;10.48;;;4.50;;
11447;SDS011;43755;49.736;8.734;2023-09-30T10:28:33;8.07;;;4.60;;
11447;SDS011;43755;49.736;8.734;2023-09-30T10:30:34;9.70;;;4.82;;
11447;SDS011;43755;49.736;8.734;2023-09-30T10:35:11;7.45;;;4.50;;
11447;SDS011;43755;49.736;8.734;2023-09-30T10:37:22;7.70;;;4.40;;
11447;SDS011;43755;49.736;8.734;2023-09-30T10:41:56;7.57;;;4.65;;
11447;SDS011;43755;49.736;8.734;2023-09-30T10:43:57;7.67;;;4.10;;
11447;SDS011;43755;49.736;8.734;2023-09-30T10:46:34;6.97;;;4.60;;
11447;SDS011;43755;49.736;8.734;2023-09-30T10:48:35;7.47;;;4.90;;
11447;SDS011;43755;49.736;8.734;2023-09-30T10:50:49;8.57;;;4.30;;
11447;SDS011;43755;49.736;8.734;2023-09-30T10:52:51;7.40;;;4.50;;
11447;SDS011;43755;49.736;8.734;2023-09-30T10:54:55;8.77;;;4.77;;
11447;SDS011;43755;49.736;8.734;2023-09-30T10:57:03;11.85;;;4.70;;
11447;SDS011;43755;49.736;8.734;2023-09-30T10:59:04;6.75;;;4.53;;
11447;SDS011;43755;49.736;8.734;2023-09-30T11:01:06;7.10;;;4.30;;
11447;SDS011;43755;49.736;8.734;2023-09-30T11:03:07;8.20;;;4.27;;
11447;SDS011;43755;49.736;8.734;2023-09-30T11:05:08;9.50;;;4.68;;
11447;SDS011;43755;49.736;8.734;2023-09-30T11:07:10;8.67;;;4.40;;
11447;SDS011;43755;49.736;8.734;2023-09-30T11:09:15;8.00;;;4.03;;
11447;SDS011;43755;49.736;8.734;2023-09-30T11:11:18;6.83;;;4.23;;
11447;SDS011;43755;49.736;8.734;2023-09-30T11:13:20;7.50;;;4.33;;
11447;SDS011;43755;49.736;8.734;2023-09-30T11:15:20;7.80;;;3.63;;
11447;SDS011;43755;49.736;8.734;2023-09-30T11:17:22;7.17;;;4.23;;
11447;SDS011;43755;49.736;8.734;2023-09-30T11:19:24;6.57;;;3.90;;
11447;SDS011;43755;49.736;8.734;2023-09-30T11:21:27;6.37;;;3.90;;
11447;SDS011;43755;49.736;8.734;2023-09-30T11:23:28;6.23;;;4.33;;
11447;SDS011;43755;49.736;8.734;2023-09-30T11:25:34;5.33;;;3.70;;
11447;SDS011;43755;49.736;8.734;2023-09-30T11:27:38;5.40;;;4.00;;
11447;SDS011;43755;49.736;8.734;2023-09-30T11:29:47;7.03;;;4.23;;
11447;SDS011;43755;49.736;8.734;2023-09-30T11:31:50;9.10;;;4.00;;
11447;SDS011;43755;49.736;8.734;2023-09-30T11:33:52;5.40;;;3.50;;
11447;SDS011;43755;49.736;8.734;2023-09-30T11:35:57;10.33;;;3.90;;
11447;SDS011;43755;49.736;8.734;2023-09-30T11:38:01;5.87;;;3.90;;
11447;SDS011;43755;49.736;8.734;2023-09-30T11:40:10;7.50;;;3.80;;
11447;SDS011;43755;49.736;8.734;2023-09-30T11:42:15;6.00;;;3.80;;
11447;SDS011;43755;49.736;8.734;2023-09-30T11:44:20;6.10;;;3.20;;
11447;SDS011;43755;49.736;8.734;2023-09-30T11:46:22;5.93;;;3.90;;
11447;SDS011;43755;49.736;8.734;2023-09-30T11:48:26;4.10;;;3.70;;
11447;SDS011;43755;49.736;8.734;2023-09-30T11:52:48;7.17;;;3.77;;
11447;SDS011;43755;49.736;8.734;2023-09-30T11:54:49;5.03;;;3.50;;
11447;SDS011;43755;49.736;8.734;2023-09-30T11:56:51;7.47;;;3.80;;
11447;SDS011;43755;49.736;8.734;2023-09-30T11:58:52;7.00;;;3.67;;
11447;SDS011;43755;49.736;8.734;2023-09-30T12:00:57;7.23;;;3.87;;
11447;SDS011;43755;49.736;8.734;2023-09-30T12:02:59;6.83;;;3.93;;
11447;SDS011;43755;49.736;8.734;2023-09-30T12:05:01;4.67;;;3.37;;
11447;SDS011;43755;49.736;8.734;2023-09-30T12:07:02;7.23;;;3.50;;
11447;SDS011;43755;49.736;8.734;2023-09-30T12:09:03;7.03;;;3.77;;
11447;SDS011;43755;49.736;8.734;2023-09-30T12:11:05;5.40;;;3.50;;
11447;SDS011;43755;49.736;8.734;2023-09-30T12:13:06;4.87;;;3.40;;
11447;SDS011;43755;49.736;8.734;2023-09-30T12:15:08;5.47;;;3.20;;
11447;SDS011;43755;49.736;8.734;2023-09-30T12:17:11;5.50;;;3.53;;
11447;SDS011;43755;49.736;8.734;2023-09-30T12:19:14;7.17;;;3.70;;
11447;SDS011;43755;49.736;8.734;2023-09-30T12:21:16;6.17;;;3.60;;
11447;SDS011;43755;49.736;8.734;2023-09-30T12:23:20;5.13;;;3.40;;
11447;SDS011;43755;49.736;8.734;2023-09-30T12:25:21;5.47;;;3.43;;
11447;SDS011;43755;49.736;8.734;2023-09-30T12:27:24;6.57;;;3.50;;
11447;SDS011;43755;49.736;8.734;2023-09-30T12:29:25;7.20;;;4.00;;
11447;SDS011;43755;49.736;8.734;2023-09-30T12:31:27;5.17;;;3.90;;
11447;SDS011;43755;49.736;8.734;2023-09-30T12:33:30;8.30;;;3.63;;
11447;SDS011;43755;49.736;8.734;2023-09-30T12:35:32;6.17;;;3.60;;
11447;SDS011;43755;49.736;8.734;2023-09-30T12:37:33;5.97;;;3.50;;